Time;durP1;ratioP1;P1;durP2;ratioP2;P2;SDS_P1;SDS_P2;PMS_P1;PMS_P2;Temp;Humidity;BMP_temperature;BMP_pressure;BME280_temperature;BME280_humidity;BME280_pressure;Samples;Min_cycle;Max_cycle;Signal;HPM_P1;HPM_P2
2022/09/13 00:01:00;;;;;;;2.90;2.70;;;19.20;99.90;;;;;;2567666;23;20004;-71
2022/09/13 00:02:01;;;;;;;3.70;2.58;;;19.30;99.90;;;;;;2554301;23;20151;-71
2022/09/13 00:03:02;;;;;;;2.63;2.42;;;19.20;99.90;;;;;;2554447;23;20005;-71
2022/09/13 00:04:03;;;;;;;2.60;2.40;;;19.30;99.90;;;;;;2567724;23;20000;-71
2022/09/13 00:05:04;;;;;;;3.10;2.80;;;19.30;99.90;;;;;;2567587;23;20341;-71
2022/09/13 00:06:16;;;;;;;3.15;2.20;;;19.30;99.90;;;;;;2567639;23;20138;-71
2022/09/13 00:07:17;;;;;;;4.10;2.83;;;19.30;99.90;;;;;;2567772;23;20028;-71
2022/09/13 00:08:18;;;;;;;2.63;2.42;;;19.30;99.90;;;;;;2554489;23;20009;-71
2022/09/13 00:09:18;;;;;;;2.58;2.25;;;19.30;99.90;;;;;;2554142;23;20000;-71
2022/09/13 00:10:19;;;;;;;2.60;2.40;;;19.30;99.90;;;;;;2567778;23;20009;-71
2022/09/13 00:11:23;;;;;;;3.35;2.58;;;19.30;99.90;;;;;;2567917;23;20012;-71
2022/09/13 00:12:24;;;;;;;2.58;2.38;;;19.30;99.90;;;;;;2567718;23;20012;-71
2022/09/13 00:13:25;;;;;;;2.50;2.30;;;19.30;99.90;;;;;;2567339;23;20456;-71
2022/09/13 00:14:25;;;;;;;2.53;2.22;;;19.30;99.90;;;;;;2567417;23;20001;-71
2022/09/13 00:15:26;;;;;;;2.42;2.22;;;19.30;99.90;;;;;;2567780;23;19996;-71
2022/09/13 00:16:28;;;;;;;4.88;3.00;;;19.30;99.90;;;;;;2567136;23;20024;-71
2022/09/13 00:17:29;;;;;;;5.07;2.70;;;19.30;99.90;;;;;;2567053;23;19997;-71
2022/09/13 00:18:29;;;;;;;2.80;2.60;;;19.30;99.90;;;;;;2567712;23;20357;-71
2022/09/13 00:19:30;;;;;;;3.63;2.50;;;19.30;99.90;;;;;;2567550;23;20028;-71
2022/09/13 00:20:30;;;;;;;3.22;2.42;;;19.30;99.90;;;;;;2567858;23;20005;-71
2022/09/13 00:21:31;;;;;;;4.72;2.80;;;19.30;99.90;;;;;;2567430;23;20084;-71
2022/09/13 00:22:32;;;;;;;3.80;2.88;;;19.30;99.90;;;;;;2567662;23;20059;-71
2022/09/13 00:23:32;;;;;;;2.50;2.40;;;19.30;99.90;;;;;;2566987;23;20035;-71
2022/09/13 00:24:33;;;;;;;2.75;2.55;;;19.30;99.90;;;;;;2567778;23;20633;-71
2022/09/13 00:25:34;;;;;;;3.00;2.20;;;19.40;99.90;;;;;;2567811;23;20035;-71
2022/09/13 00:26:35;;;;;;;4.30;2.28;;;19.40;99.90;;;;;;2567382;23;20008;-71
2022/09/13 00:27:36;;;;;;;2.53;2.33;;;19.40;99.90;;;;;;2567613;23;20035;-71
2022/09/13 00:28:37;;;;;;;2.60;2.40;;;19.40;99.90;;;;;;2567331;23;20004;-71
2022/09/13 00:29:37;;;;;;;2.60;2.40;;;19.40;99.90;;;;;;2567578;23;20004;-71
2022/09/13 00:30:38;;;;;;;3.90;2.67;;;19.40;99.90;;;;;;2567747;23;20008;-71
2022/09/13 00:31:39;;;;;;;2.42;2.17;;;19.40;99.90;;;;;;2567687;23;20464;-71
2022/09/13 00:32:40;;;;;;;2.90;2.30;;;19.40;99.90;;;;;;2567260;23;20007;-71
2022/09/13 00:33:40;;;;;;;3.05;2.20;;;19.40;99.90;;;;;;2567290;23;20007;-71
2022/09/13 00:34:41;;;;;;;2.88;2.58;;;19.40;99.90;;;;;;2567481;23;20008;-71
2022/09/13 00:35:41;;;;;;;3.92;2.63;;;19.40;99.90;;;;;;2567544;23;20005;-71
2022/09/13 00:36:42;;;;;;;4.57;2.50;;;19.40;99.90;;;;;;2567505;23;19997;-71
2022/09/13 00:37:43;;;;;;;2.63;2.42;;;19.40;99.90;;;;;;2567670;23;20001;-71
2022/09/13 00:38:43;;;;;;;5.40;2.50;;;19.40;99.90;;;;;;2567663;23;20370;-71
2022/09/13 00:39:44;;;;;;;2.38;2.17;;;19.40;99.90;;;;;;2567326;23;20032;-71
2022/09/13 00:40:45;;;;;;;3.83;2.40;;;19.40;99.90;;;;;;2567827;23;19996;-71
2022/09/13 00:41:45;;;;;;;2.50;2.25;;;19.40;99.90;;;;;;2567786;23;20337;-71
2022/09/13 00:42:46;;;;;;;2.10;2.00;;;19.40;99.90;;;;;;2567464;23;20042;-71
2022/09/13 00:43:53;;;;;;;2.33;2.13;;;19.40;99.90;;;;;;2566666;23;20004;-71
2022/09/13 00:45:02;;;;;;;4.22;2.40;;;19.40;99.90;;;;;;2553898;23;20013;-71
2022/09/13 00:46:03;;;;;;;2.63;2.40;;;19.50;99.90;;;;;;2556097;23;20016;-71
2022/09/13 00:47:04;;;;;;;3.25;2.25;;;19.40;99.90;;;;;;2554020;23;20017;-71
2022/09/13 00:48:07;;;;;;;2.55;2.28;;;19.50;99.90;;;;;;2542037;23;20016;-71
2022/09/13 00:49:13;;;;;;;2.75;2.50;;;19.50;99.90;;;;;;2542230;23;20008;-71
2022/09/13 00:50:40;;;;;;;3.78;2.50;;;19.50;99.90;;;;;;2555509;23;20031;-71
2022/09/13 00:51:44;;;;;;;2.33;2.10;;;19.50;99.90;;;;;;2567839;23;20035;-71
2022/09/13 00:52:50;;;;;;;5.13;2.65;;;19.50;99.90;;;;;;2566992;23;20020;-71
2022/09/13 00:53:54;;;;;;;3.58;2.38;;;19.50;99.90;;;;;;2567028;23;20036;-71
2022/09/13 00:55:00;;;;;;;2.38;2.10;;;19.50;99.90;;;;;;2567682;23;20009;-71
2022/09/13 00:56:03;;;;;;;2.53;2.33;;;19.50;99.90;;;;;;2567335;23;20007;-71
2022/09/13 00:57:06;;;;;;;4.63;2.50;;;19.50;99.90;;;;;;2567353;23;20012;-71
2022/09/13 00:58:12;;;;;;;2.67;2.20;;;19.50;99.90;;;;;;2567796;23;20104;-71
2022/09/13 00:59:18;;;;;;;2.35;2.22;;;19.50;99.90;;;;;;2567416;23;20008;-71
2022/09/13 01:00:19;;;;;;;3.13;2.75;;;19.50;99.90;;;;;;2567712;23;20015;-71
2022/09/13 01:01:24;;;;;;;3.03;2.50;;;19.50;99.90;;;;;;2567556;23;20393;-71
2022/09/13 01:02:27;;;;;;;2.65;2.55;;;19.50;99.90;;;;;;2567343;23;20392;-71
2022/09/13 01:03:32;;;;;;;4.65;2.42;;;19.50;99.90;;;;;;2566853;23;20004;-71
2022/09/13 01:04:35;;;;;;;5.10;2.83;;;19.50;99.90;;;;;;2567309;23;20000;-71
2022/09/13 01:05:51;;;;;;;3.15;2.28;;;19.50;99.90;;;;;;2553951;23;20827;-71
2022/09/13 01:06:56;;;;;;;2.88;2.30;;;19.50;99.90;;;;;;2557107;23;20381;-71
2022/09/13 01:07:57;;;;;;;2.38;2.17;;;19.50;99.90;;;;;;2567689;23;20004;-71
2022/09/13 01:09:03;;;;;;;3.05;2.70;;;19.50;99.90;;;;;;2567618;23;20011;-71
2022/09/13 01:10:06;;;;;;;4.13;2.47;;;19.50;99.90;;;;;;2567297;23;20083;-71
2022/09/13 01:11:12;;;;;;;2.13;2.03;;;19.50;99.90;;;;;;2554236;23;20004;-71
2022/09/13 01:12:35;;;;;;;2.53;2.33;;;19.50;99.90;;;;;;2556246;23;20000;-71
2022/09/13 01:13:35;;;;;;;2.72;2.13;;;19.50;99.90;;;;;;2567188;23;19992;-71
2022/09/13 01:14:37;;;;;;;5.43;2.75;;;19.50;99.90;;;;;;2567597;23;20757;-71
2022/09/13 01:15:37;;;;;;;2.53;2.33;;;19.50;99.90;;;;;;2567157;23;19997;-71
2022/09/13 01:16:38;;;;;;;2.92;2.45;;;19.50;99.90;;;;;;2567262;23;20410;-71
2022/09/13 01:17:40;;;;;;;2.38;2.28;;;19.50;99.90;;;;;;2553747;23;20005;-71
2022/09/13 01:18:40;;;;;;;2.90;2.70;;;19.40;99.90;;;;;;2554076;23;20382;-71
2022/09/13 01:19:41;;;;;;;2.75;2.60;;;19.50;99.90;;;;;;2567390;23;20071;-71
2022/09/13 01:21:13;;;;;;;2.50;2.30;;;19.50;99.90;;;;;;2567202;23;19996;-71
2022/09/13 01:22:53;;;;;;;2.97;2.70;;;19.50;99.90;;;;;;2566286;23;20015;-71
2022/09/13 01:24:19;;;;;;;3.38;2.38;;;19.40;99.90;;;;;;2566718;23;20009;-71
2022/09/13 01:25:44;;;;;;;3.33;2.53;;;19.40;99.90;;;;;;2567562;23;20009;-71
2022/09/13 01:27:15;;;;;;;2.88;2.67;;;19.40;99.90;;;;;;2567191;23;20615;-71
2022/09/13 01:28:40;;;;;;;5.95;2.80;;;19.30;99.90;;;;;;2567320;23;20005;-71
2022/09/13 01:30:14;;;;;;;3.35;3.15;;;19.40;99.90;;;;;;2567130;23;20051;-71
2022/09/13 01:31:23;;;;;;;3.50;2.60;;;19.40;99.90;;;;;;2553753;23;20021;-71
2022/09/13 01:32:55;;;;;;;2.80;2.60;;;19.30;99.90;;;;;;2555872;23;20092;-71
2022/09/13 01:33:58;;;;;;;2.83;2.42;;;19.30;99.90;;;;;;2567161;23;20036;-71
2022/09/13 01:35:01;;;;;;;4.68;2.90;;;19.30;99.90;;;;;;2567108;23;20004;-71
2022/09/13 01:36:02;;;;;;;2.90;2.47;;;19.30;99.90;;;;;;2567140;23;20005;-71
2022/09/13 01:37:15;;;;;;;3.40;2.70;;;19.30;99.90;;;;;;2567167;23;20012;-71
2022/09/13 01:38:38;;;;;;;2.80;2.60;;;19.30;99.90;;;;;;2567323;23;20009;-72
2022/09/13 01:39:52;;;;;;;3.83;2.63;;;19.30;99.90;;;;;;2567037;23;20004;-71
2022/09/13 01:41:22;;;;;;;2.40;2.20;;;19.30;99.90;;;;;;2567058;23;20023;-71
2022/09/13 01:42:46;;;;;;;5.30;2.97;;;19.20;99.90;;;;;;2553939;23;20013;-71
2022/09/13 01:44:04;;;;;;;2.92;2.30;;;19.20;99.90;;;;;;2553763;23;20004;-71
2022/09/13 01:45:32;;;;;;;4.32;2.95;;;19.20;99.90;;;;;;2558076;23;20012;-71
2022/09/13 01:46:40;;;;;;;2.55;2.45;;;19.20;99.90;;;;;;2553811;23;20720;-71
2022/09/13 01:48:12;;;;;;;3.45;2.75;;;19.20;99.90;;;;;;2555592;23;20008;-71
2022/09/13 01:49:37;;;;;;;2.80;2.60;;;19.20;99.90;;;;;;2567013;23;20004;-71
2022/09/13 01:50:59;;;;;;;2.50;2.30;;;19.10;99.90;;;;;;2567302;23;20004;-71
2022/09/13 01:52:27;;;;;;;3.72;2.65;;;19.10;99.90;;;;;;2567006;23;20321;-71
2022/09/13 01:53:46;;;;;;;3.15;2.65;;;19.10;99.90;;;;;;2554666;23;20450;-71
2022/09/13 01:55:03;;;;;;;4.35;2.67;;;19.10;99.90;;;;;;2555001;23;20024;-71
2022/09/13 01:56:15;;;;;;;3.17;2.65;;;19.10;99.90;;;;;;2554465;23;20001;-71
2022/09/13 01:57:31;;;;;;;2.88;2.33;;;19.10;99.90;;;;;;2554638;23;20001;-72
2022/09/13 01:58:56;;;;;;;3.47;2.58;;;19.10;99.90;;;;;;2554256;23;19993;-71
2022/09/13 02:00:09;;;;;;;2.70;2.47;;;19.00;99.90;;;;;;2555016;23;20001;-71
2022/09/13 02:01:17;;;;;;;3.45;2.70;;;19.00;99.90;;;;;;2554601;23;20079;-71
2022/09/13 02:02:35;;;;;;;5.30;2.60;;;19.00;99.90;;;;;;2554793;23;20001;-71
2022/09/13 02:03:43;;;;;;;3.38;3.08;;;19.00;99.90;;;;;;2553914;23;19997;-71
2022/09/13 02:04:53;;;;;;;2.47;2.33;;;19.00;99.90;;;;;;2554555;23;20005;-71
2022/09/13 02:06:05;;;;;;;2.72;2.35;;;19.00;99.90;;;;;;2554757;23;20105;-71
2022/09/13 02:07:20;;;;;;;5.10;2.67;;;19.00;99.90;;;;;;2554725;23;20008;-71
2022/09/13 02:08:26;;;;;;;2.80;2.60;;;19.00;99.90;;;;;;2554619;23;20080;-71
2022/09/13 02:09:34;;;;;;;5.13;2.70;;;19.00;99.90;;;;;;2541847;23;20005;-71
2022/09/13 02:10:40;;;;;;;2.72;2.53;;;18.90;99.90;;;;;;2543231;23;20010;-71
2022/09/13 02:11:44;;;;;;;2.70;2.50;;;18.90;99.90;;;;;;2541508;23;20012;-71
2022/09/13 02:12:46;;;;;;;3.10;2.50;;;18.90;99.90;;;;;;2542269;23;20025;-71
2022/09/13 02:14:13;;;;;;;2.42;2.28;;;18.90;99.90;;;;;;2554381;23;19997;-71
2022/09/13 02:15:21;;;;;;;2.95;2.65;;;19.00;99.90;;;;;;2541538;23;20293;-71
2022/09/13 02:16:30;;;;;;;2.70;2.50;;;18.90;99.90;;;;;;2543026;23;20006;-71
2022/09/13 02:17:37;;;;;;;3.10;2.55;;;18.90;99.90;;;;;;2554064;23;20008;-71
2022/09/13 02:18:42;;;;;;;3.97;2.45;;;18.90;99.90;;;;;;2554879;23;20008;-71
2022/09/13 02:19:47;;;;;;;3.88;2.70;;;18.90;99.90;;;;;;2554227;23;20032;-71
2022/09/13 02:20:50;;;;;;;2.55;2.35;;;18.90;99.90;;;;;;2554736;23;20015;-71
2022/09/13 02:21:58;;;;;;;4.47;2.50;;;18.90;99.90;;;;;;2554749;23;20360;-71
2022/09/13 02:23:04;;;;;;;2.33;2.10;;;18.90;99.90;;;;;;2541122;23;20009;-71
2022/09/13 02:24:16;;;;;;;2.88;2.50;;;18.90;99.90;;;;;;2543135;23;20096;-71
2022/09/13 02:25:21;;;;;;;4.72;3.00;;;18.90;99.90;;;;;;2554985;23;20418;-71
2022/09/13 02:26:24;;;;;;;2.80;2.60;;;18.90;99.90;;;;;;2554680;23;20442;-71
2022/09/13 02:27:28;;;;;;;4.10;2.47;;;19.00;99.90;;;;;;2554660;23;20013;-71
2022/09/13 02:28:36;;;;;;;2.90;2.42;;;18.90;99.90;;;;;;2554678;23;20016;-71
2022/09/13 02:29:41;;;;;;;2.67;2.47;;;18.90;99.90;;;;;;2554727;23;20001;-71
2022/09/13 02:30:48;;;;;;;2.63;2.42;;;18.90;99.90;;;;;;2541410;23;20066;-71
2022/09/13 02:31:55;;;;;;;2.85;2.55;;;18.90;99.90;;;;;;2541742;23;20009;-71
2022/09/13 02:33:11;;;;;;;2.88;2.55;;;18.90;99.90;;;;;;2543141;23;20703;-71
2022/09/13 02:34:20;;;;;;;4.65;2.75;;;18.90;99.90;;;;;;2554938;23;20001;-71
2022/09/13 02:35:23;;;;;;;6.65;2.70;;;18.90;99.90;;;;;;2554253;23;20120;-71
2022/09/13 02:36:28;;;;;;;3.17;2.80;;;18.90;99.90;;;;;;2554492;23;20001;-71
2022/09/13 02:37:32;;;;;;;2.60;2.40;;;19.00;99.90;;;;;;2554676;23;20001;-71
2022/09/13 02:38:44;;;;;;;2.88;2.63;;;19.00;99.90;;;;;;2554809;23;20021;-71
2022/09/13 02:40:01;;;;;;;4.15;2.50;;;19.00;99.90;;;;;;2554529;23;20033;-71
2022/09/13 02:41:26;;;;;;;2.85;2.58;;;18.90;99.90;;;;;;2554683;23;20008;-71
2022/09/13 02:42:36;;;;;;;3.45;2.42;;;19.00;99.90;;;;;;2554777;23;20001;-71
2022/09/13 02:43:43;;;;;;;3.45;2.60;;;18.90;99.90;;;;;;2554005;23;20326;-71
2022/09/13 02:44:48;;;;;;;2.60;2.40;;;18.90;99.90;;;;;;2554842;23;20059;-71
2022/09/13 02:45:58;;;;;;;4.28;2.50;;;18.90;99.90;;;;;;2554498;23;19997;-71
2022/09/13 02:47:08;;;;;;;2.70;2.47;;;19.00;99.90;;;;;;2554466;23;20008;-71
2022/09/13 02:48:18;;;;;;;3.10;2.80;;;18.90;99.90;;;;;;2554532;23;21031;-71
2022/09/13 02:49:25;;;;;;;4.13;3.05;;;18.90;99.90;;;;;;2554445;23;20009;-71
2022/09/13 02:50:41;;;;;;;4.30;2.60;;;19.00;99.90;;;;;;2554251;23;20059;-71
2022/09/13 02:51:53;;;;;;;3.10;2.80;;;19.00;99.90;;;;;;2554755;23;20326;-71
2022/09/13 02:53:28;;;;;;;3.15;2.50;;;19.00;99.90;;;;;;2563627;23;20083;-71
2022/09/13 02:54:42;;;;;;;7.22;3.08;;;18.90;99.90;;;;;;2566945;23;20037;-71
2022/09/13 02:55:47;;;;;;;6.47;2.65;;;19.00;99.90;;;;;;2566705;23;20008;-71
2022/09/13 02:56:55;;;;;;;5.05;2.72;;;19.00;99.90;;;;;;2566964;23;19997;-71
2022/09/13 02:58:09;;;;;;;4.38;2.67;;;18.90;99.90;;;;;;2567086;23;20871;-71
2022/09/13 02:59:16;;;;;;;4.13;2.67;;;19.00;99.90;;;;;;2566921;23;20499;-71
2022/09/13 03:00:17;;;;;;;4.20;2.97;;;18.90;99.90;;;;;;2566928;23;20012;-71
2022/09/13 03:01:20;;;;;;;3.72;2.88;;;18.90;99.90;;;;;;2566838;23;20043;-71
2022/09/13 03:02:24;;;;;;;4.47;2.92;;;19.00;99.90;;;;;;2566841;23;20440;-72
2022/09/13 03:03:25;;;;;;;4.00;2.45;;;19.00;99.90;;;;;;2566299;23;20011;-71
2022/09/13 03:04:27;;;;;;;3.00;2.45;;;19.00;99.90;;;;;;2566349;23;20009;-71
2022/09/13 03:05:28;;;;;;;3.60;2.70;;;19.00;99.90;;;;;;2566729;23;20016;-71
2022/09/13 03:06:29;;;;;;;4.82;2.75;;;19.00;99.90;;;;;;2553147;23;20088;-71
2022/09/13 03:07:30;;;;;;;4.10;2.67;;;19.00;99.90;;;;;;2553861;23;20009;-71
2022/09/13 03:08:30;;;;;;;3.55;2.78;;;19.00;99.90;;;;;;2567045;23;20426;-71
2022/09/13 03:09:32;;;;;;;3.50;2.72;;;19.00;99.90;;;;;;2553634;23;20119;-71
2022/09/13 03:11:02;;;;;;;5.50;2.80;;;19.00;99.90;;;;;;2554122;23;20054;-71
2022/09/13 03:12:23;;;;;;;2.95;2.72;;;19.00;99.90;;;;;;2567011;23;20020;-71
2022/09/13 03:13:24;;;;;;;3.40;3.03;;;19.00;99.90;;;;;;2553202;23;20068;-71
2022/09/13 03:14:48;;;;;;;3.53;2.80;;;19.00;99.90;;;;;;2553810;23;20001;-71
2022/09/13 03:16:10;;;;;;;3.58;2.60;;;19.00;99.90;;;;;;2566672;23;20341;-71
2022/09/13 03:17:29;;;;;;;4.68;2.70;;;18.90;99.90;;;;;;2566653;23;19996;-71
2022/09/13 03:19:01;;;;;;;4.43;2.83;;;18.90;99.90;;;;;;2566835;23;20001;-71
2022/09/13 03:20:13;;;;;;;2.95;2.72;;;18.90;99.90;;;;;;2567102;23;20008;-71
2022/09/13 03:21:17;;;;;;;4.32;2.80;;;18.90;99.90;;;;;;2566775;23;20095;-71
2022/09/13 03:22:42;;;;;;;5.22;3.08;;;18.90;99.90;;;;;;2567135;23;20011;-71
2022/09/13 03:24:11;;;;;;;4.07;3.08;;;18.90;99.90;;;;;;2565927;23;20047;-71
2022/09/13 03:25:28;;;;;;;3.40;2.70;;;18.90;99.90;;;;;;2567002;23;20112;-71
2022/09/13 03:26:57;;;;;;;3.83;3.28;;;18.90;99.90;;;;;;2566873;23;20003;-71
2022/09/13 03:28:12;;;;;;;4.13;2.58;;;18.80;99.90;;;;;;2567139;23;20050;-71
2022/09/13 03:29:37;;;;;;;3.42;2.58;;;18.90;99.90;;;;;;2566808;23;20074;-71
2022/09/13 03:30:44;;;;;;;3.00;2.70;;;18.80;99.90;;;;;;2567530;23;20712;-71
2022/09/13 03:32:03;;;;;;;3.00;2.80;;;18.80;99.90;;;;;;2568082;23;20005;-71
2022/09/13 03:33:20;;;;;;;3.60;2.63;;;18.80;99.90;;;;;;2567264;23;20004;-71
2022/09/13 03:34:45;;;;;;;3.35;2.35;;;18.90;99.90;;;;;;2567588;23;20318;-71
2022/09/13 03:35:56;;;;;;;5.03;2.60;;;18.90;99.90;;;;;;2567439;23;20463;-71
2022/09/13 03:37:15;;;;;;;2.83;2.63;;;18.90;99.90;;;;;;2554733;23;20036;-71
2022/09/13 03:38:40;;;;;;;2.85;2.60;;;18.90;99.90;;;;;;2559547;23;20000;-71
2022/09/13 03:40:12;;;;;;;2.67;2.47;;;18.90;99.90;;;;;;2567535;23;20008;-71
2022/09/13 03:41:20;;;;;;;3.25;2.72;;;18.90;99.90;;;;;;2566579;23;20013;-71
2022/09/13 03:42:40;;;;;;;4.10;2.75;;;18.90;99.90;;;;;;2567887;23;20009;-71
2022/09/13 03:43:44;;;;;;;3.15;2.88;;;18.90;99.90;;;;;;2567359;23;20059;-71
2022/09/13 03:44:48;;;;;;;3.42;3.08;;;18.90;99.90;;;;;;2567974;23;20071;-71
2022/09/13 03:45:54;;;;;;;2.90;2.60;;;19.00;99.90;;;;;;2567669;23;20495;-71
2022/09/13 03:46:59;;;;;;;3.20;2.90;;;18.90;99.90;;;;;;2567796;23;20004;-71
2022/09/13 03:48:01;;;;;;;2.95;2.58;;;18.90;99.90;;;;;;2567880;23;20000;-71
2022/09/13 03:49:08;;;;;;;3.42;2.75;;;19.00;99.90;;;;;;2567893;23;20377;-71
2022/09/13 03:50:13;;;;;;;6.05;3.13;;;19.00;99.90;;;;;;2554218;23;20205;-71
2022/09/13 03:51:14;;;;;;;3.25;3.00;;;19.00;99.90;;;;;;2554834;23;20008;-71
2022/09/13 03:52:15;;;;;;;3.28;2.70;;;19.00;99.90;;;;;;2567673;23;20005;-71
2022/09/13 03:53:29;;;;;;;3.13;2.83;;;19.00;99.90;;;;;;2567423;23;20000;-71
2022/09/13 03:54:31;;;;;;;3.83;2.65;;;19.00;99.90;;;;;;2567366;23;20007;-71
2022/09/13 03:55:34;;;;;;;5.10;3.22;;;19.00;99.90;;;;;;2567854;23;20004;-71
2022/09/13 03:56:34;;;;;;;3.70;3.08;;;19.00;99.90;;;;;;2567496;23;20072;-71
2022/09/13 03:57:36;;;;;;;3.92;3.17;;;19.00;99.90;;;;;;2567709;23;20000;-71
2022/09/13 03:58:36;;;;;;;3.00;2.80;;;19.00;99.90;;;;;;2567802;23;20027;-72
2022/09/13 03:59:43;;;;;;;3.78;2.97;;;19.10;99.90;;;;;;2567682;23;20008;-71
2022/09/13 04:00:44;;;;;;;5.60;2.75;;;19.10;99.90;;;;;;2567811;23;20000;-71
2022/09/13 04:01:45;;;;;;;2.70;2.50;;;19.10;99.90;;;;;;2567925;23;20071;-71
2022/09/13 04:02:45;;;;;;;3.33;2.85;;;19.10;99.90;;;;;;2567085;23;20488;-71
2022/09/13 04:03:47;;;;;;;4.50;2.97;;;19.10;99.90;;;;;;2566995;23;20009;-71
2022/09/13 04:04:47;;;;;;;5.38;2.92;;;19.10;99.90;;;;;;2554108;23;20080;-71
2022/09/13 04:05:49;;;;;;;4.45;2.85;;;19.10;99.90;;;;;;2554274;23;20005;-71
2022/09/13 04:06:49;;;;;;;4.90;2.50;;;19.10;99.90;;;;;;2567456;23;20004;-71
2022/09/13 04:07:50;;;;;;;3.75;2.67;;;19.10;99.90;;;;;;2567501;23;20001;-71
2022/09/13 04:08:50;;;;;;;4.18;3.00;;;19.10;99.90;;;;;;2567476;23;20020;-71
2022/09/13 04:09:51;;;;;;;3.60;2.92;;;19.10;99.90;;;;;;2567602;23;20504;-71
2022/09/13 04:10:51;;;;;;;3.33;3.00;;;19.10;99.90;;;;;;2567362;23;20012;-71
2022/09/13 04:11:52;;;;;;;2.60;2.33;;;19.10;99.90;;;;;;2567797;23;20009;-71
2022/09/13 04:12:56;;;;;;;4.40;3.08;;;19.10;99.90;;;;;;2567460;23;20480;-71
2022/09/13 04:13:58;;;;;;;4.63;2.85;;;19.10;99.90;;;;;;2567323;23;20004;-71
2022/09/13 04:14:59;;;;;;;4.07;2.58;;;19.20;99.90;;;;;;2567473;23;20018;-71
2022/09/13 04:16:03;;;;;;;4.22;2.88;;;19.20;99.90;;;;;;2566932;23;20027;-71
2022/09/13 04:17:04;;;;;;;4.57;3.03;;;19.20;99.90;;;;;;2567377;23;20228;-71
2022/09/13 04:18:04;;;;;;;4.80;2.90;;;19.10;99.90;;;;;;2567608;23;20009;-71
2022/09/13 04:19:05;;;;;;;4.75;2.95;;;19.10;99.90;;;;;;2567691;23;20519;-71
2022/09/13 04:20:06;;;;;;;3.38;3.08;;;19.10;99.90;;;;;;2554143;23;20113;-71
2022/09/13 04:21:08;;;;;;;3.00;2.75;;;19.20;99.90;;;;;;2554189;23;20763;-71
2022/09/13 04:22:08;;;;;;;8.88;3.03;;;19.20;99.90;;;;;;2567571;23;20051;-71
2022/09/13 04:23:09;;;;;;;3.22;2.92;;;19.10;99.90;;;;;;2567435;23;20333;-71
2022/09/13 04:24:09;;;;;;;4.97;3.30;;;19.10;99.90;;;;;;2567538;23;20310;-71
2022/09/13 04:25:10;;;;;;;3.28;2.90;;;19.10;99.90;;;;;;2567823;23;20087;-71
2022/09/13 04:26:10;;;;;;;4.55;3.20;;;19.20;99.90;;;;;;2553929;23;20330;-71
2022/09/13 04:27:11;;;;;;;3.63;2.80;;;19.10;99.90;;;;;;2554119;23;20001;-71
2022/09/13 04:28:12;;;;;;;2.88;2.60;;;19.10;99.90;;;;;;2554526;23;20005;-71
2022/09/13 04:29:12;;;;;;;3.17;2.90;;;19.10;99.90;;;;;;2567637;23;20004;-71
2022/09/13 04:30:13;;;;;;;3.75;3.10;;;19.20;99.90;;;;;;2567401;23;20337;-71
2022/09/13 04:31:13;;;;;;;3.67;2.72;;;19.10;99.90;;;;;;2567399;23;20016;-71
2022/09/13 04:32:14;;;;;;;3.33;2.70;;;19.20;99.90;;;;;;2566892;23;20013;-71
2022/09/13 04:33:16;;;;;;;4.40;3.25;;;19.10;99.90;;;;;;2554060;23;20096;-71
2022/09/13 04:34:21;;;;;;;4.28;2.90;;;19.10;99.90;;;;;;2554541;23;20028;-71
2022/09/13 04:35:22;;;;;;;3.25;2.95;;;19.10;99.90;;;;;;2553932;23;20059;-71
2022/09/13 04:36:23;;;;;;;4.10;2.70;;;19.10;99.90;;;;;;2554091;23;20001;-71
2022/09/13 04:37:23;;;;;;;7.72;2.75;;;19.10;99.90;;;;;;2554225;23;20433;-71
2022/09/13 04:38:24;;;;;;;3.25;2.70;;;19.10;99.90;;;;;;2567359;23;20413;-71
2022/09/13 04:39:24;;;;;;;3.13;2.83;;;19.10;99.90;;;;;;2554725;23;20009;-71
2022/09/13 04:40:25;;;;;;;4.93;2.58;;;19.10;99.90;;;;;;2554306;23;20005;-71
2022/09/13 04:41:26;;;;;;;2.80;2.60;;;19.10;99.90;;;;;;2567617;23;20356;-71
2022/09/13 04:42:26;;;;;;;2.60;2.35;;;19.10;99.90;;;;;;2567518;23;20001;-71
2022/09/13 04:43:27;;;;;;;3.00;2.80;;;19.10;99.90;;;;;;2567091;23;20570;-71
2022/09/13 04:44:27;;;;;;;6.50;2.85;;;19.10;99.90;;;;;;2567863;23;20008;-71
2022/09/13 04:45:28;;;;;;;3.63;3.10;;;19.10;99.90;;;;;;2567216;23;20009;-71
2022/09/13 04:46:29;;;;;;;4.22;2.85;;;19.10;99.90;;;;;;2567522;23;20028;-71
2022/09/13 04:47:29;;;;;;;2.65;2.42;;;19.10;99.90;;;;;;2554238;23;20080;-71
2022/09/13 04:48:30;;;;;;;5.68;2.50;;;19.10;99.90;;;;;;2554073;23;20016;-71
2022/09/13 04:49:30;;;;;;;3.63;2.75;;;19.10;99.90;;;;;;2566778;23;20015;-71
2022/09/13 04:50:31;;;;;;;5.60;2.85;;;19.10;99.90;;;;;;2567234;23;20008;-71
2022/09/13 04:51:32;;;;;;;3.15;2.85;;;19.20;99.90;;;;;;2567536;23;20003;-71
2022/09/13 04:52:33;;;;;;;3.45;2.97;;;19.20;99.90;;;;;;2567094;23;20436;-71
2022/09/13 04:53:34;;;;;;;5.05;3.00;;;19.10;99.90;;;;;;2567535;23;20001;-71
2022/09/13 04:54:35;;;;;;;3.45;3.15;;;19.20;99.90;;;;;;2567747;23;19993;-71
2022/09/13 04:55:35;;;;;;;3.58;2.90;;;19.20;99.90;;;;;;2554478;23;20001;-71
2022/09/13 04:56:36;;;;;;;3.28;2.95;;;19.20;99.90;;;;;;2553784;23;19997;-71
2022/09/13 04:57:37;;;;;;;5.07;3.25;;;19.20;99.90;;;;;;2567340;23;20007;-71
2022/09/13 04:58:37;;;;;;;2.90;2.70;;;19.10;99.90;;;;;;2567604;23;20023;-71
2022/09/13 04:59:38;;;;;;;3.08;2.65;;;19.10;99.90;;;;;;2567375;23;19997;-71
2022/09/13 05:00:38;;;;;;;3.88;2.90;;;19.10;99.90;;;;;;2566964;23;20449;-71
2022/09/13 05:01:40;;;;;;;3.58;2.60;;;19.20;99.90;;;;;;2567587;23;20098;-71
2022/09/13 05:02:40;;;;;;;5.90;3.00;;;19.20;99.90;;;;;;2566400;23;20008;-71
2022/09/13 05:03:41;;;;;;;4.10;2.90;;;19.10;99.90;;;;;;2566285;23;20004;-71
2022/09/13 05:04:41;;;;;;;4.65;2.95;;;19.20;99.90;;;;;;2566949;23;20844;-71
2022/09/13 05:05:42;;;;;;;2.95;2.63;;;19.10;99.90;;;;;;2566504;23;20072;-71
2022/09/13 05:06:42;;;;;;;5.63;3.17;;;19.10;99.90;;;;;;2567361;23;20004;-71
2022/09/13 05:07:43;;;;;;;4.68;3.15;;;19.10;99.90;;;;;;2566776;23;20043;-72
2022/09/13 05:08:48;;;;;;;6.25;3.10;;;19.10;99.90;;;;;;2567470;23;20718;-71
2022/09/13 05:09:49;;;;;;;3.67;2.92;;;19.10;99.90;;;;;;2567148;23;20055;-71
2022/09/13 05:10:49;;;;;;;5.38;3.13;;;19.10;99.90;;;;;;2566748;23;20008;-71
2022/09/13 05:11:50;;;;;;;5.68;3.20;;;19.10;99.90;;;;;;2567249;23;20008;-71
2022/09/13 05:12:51;;;;;;;4.15;3.20;;;19.10;99.90;;;;;;2567465;23;20083;-71
2022/09/13 05:13:54;;;;;;;4.38;3.17;;;19.10;99.90;;;;;;2565851;23;20071;-71
2022/09/13 05:14:54;;;;;;;3.70;3.30;;;19.10;99.90;;;;;;2565706;23;20036;-71
2022/09/13 05:15:56;;;;;;;4.50;3.00;;;19.10;99.90;;;;;;2565190;23;20000;-71
2022/09/13 05:16:56;;;;;;;3.80;2.88;;;19.10;99.90;;;;;;2566883;23;20067;-71
2022/09/13 05:17:57;;;;;;;3.55;2.80;;;19.10;99.90;;;;;;2567108;23;20466;-71
2022/09/13 05:18:58;;;;;;;4.03;3.00;;;19.10;99.90;;;;;;2567554;23;20048;-71
2022/09/13 05:19:59;;;;;;;5.25;3.35;;;19.10;99.90;;;;;;2567248;23;20058;-71
2022/09/13 05:21:02;;;;;;;3.63;3.33;;;19.10;99.90;;;;;;2567447;23;20063;-71
2022/09/13 05:22:02;;;;;;;3.40;3.10;;;19.10;99.90;;;;;;2567445;23;20059;-71
2022/09/13 05:23:03;;;;;;;3.72;2.83;;;19.10;99.90;;;;;;2566521;23;20058;-71
2022/09/13 05:24:04;;;;;;;3.35;3.05;;;19.10;99.90;;;;;;2567014;23;20004;-71
2022/09/13 05:25:05;;;;;;;3.15;2.80;;;19.10;99.90;;;;;;2567473;23;20019;-71
2022/09/13 05:26:06;;;;;;;4.22;3.20;;;19.10;99.90;;;;;;2566528;23;20009;-71
2022/09/13 05:27:07;;;;;;;3.13;2.83;;;19.10;99.90;;;;;;2566095;23;20004;-71
2022/09/13 05:28:11;;;;;;;3.97;3.28;;;19.10;99.90;;;;;;2567077;23;20001;-71
2022/09/13 05:29:11;;;;;;;4.15;3.25;;;19.10;99.90;;;;;;2567172;23;20031;-71
2022/09/13 05:30:13;;;;;;;3.92;3.35;;;19.10;99.90;;;;;;2567190;23;20028;-71
2022/09/13 05:31:26;;;;;;;3.35;2.70;;;19.10;99.90;;;;;;2567470;23;20004;-71
2022/09/13 05:32:27;;;;;;;3.72;2.92;;;19.10;99.90;;;;;;2567358;23;20472;-71
2022/09/13 05:33:30;;;;;;;3.67;3.10;;;19.10;99.90;;;;;;2567080;23;20310;-71
2022/09/13 05:34:31;;;;;;;3.30;3.00;;;19.10;99.90;;;;;;2567478;23;20005;-71
2022/09/13 05:35:31;;;;;;;5.72;3.17;;;19.10;99.90;;;;;;2566837;23;20008;-71
2022/09/13 05:36:33;;;;;;;4.30;3.30;;;19.10;99.90;;;;;;2553599;23;20040;-71
2022/09/13 05:37:33;;;;;;;3.03;2.75;;;19.10;99.90;;;;;;2554336;23;19997;-72
2022/09/13 05:38:34;;;;;;;3.42;3.13;;;19.10;99.90;;;;;;2566890;23;20024;-71
2022/09/13 05:39:35;;;;;;;3.30;3.00;;;19.10;99.90;;;;;;2567412;23;20000;-71
2022/09/13 05:40:35;;;;;;;3.55;3.20;;;19.10;99.90;;;;;;2567257;23;20014;-71
2022/09/13 05:41:36;;;;;;;4.60;3.00;;;19.20;99.90;;;;;;2567413;23;20000;-71
2022/09/13 05:42:36;;;;;;;4.50;3.13;;;19.10;99.90;;;;;;2567490;23;20619;-71
2022/09/13 05:43:37;;;;;;;3.92;2.70;;;19.20;99.90;;;;;;2566772;23;20000;-71
2022/09/13 05:44:38;;;;;;;4.65;2.97;;;19.20;99.90;;;;;;2567456;23;20471;-71
2022/09/13 05:45:39;;;;;;;4.35;2.92;;;19.20;99.90;;;;;;2566801;23;20329;-71
2022/09/13 05:46:41;;;;;;;7.88;3.08;;;19.20;99.90;;;;;;2567278;23;20271;-71